Time;durP1;ratioP1;P1;durP2;ratioP2;P2;SDS_P1;SDS_P2;PMS_P1;PMS_P2;Temp;Humidity;BMP_temperature;BMP_pressure;BME280_temperature;BME280_humidity;BME280_pressure;Samples;Min_cycle;Max_cycle;Signal;HPM_P1;HPM_P2
2023/06/03 00:01:04;;;;;;;4.47;1.27;;;;;;;10.27;59.02;101673.22;6025103;28;20022;-66
2023/06/03 00:03:59;;;;;;;2.75;1.10;;;;;;;10.36;56.88;101688.38;6026569;28;20030;-66
2023/06/03 00:06:56;;;;;;;4.00;0.77;;;;;;;10.33;57.39;101692.13;6027321;28;20034;-67
2023/06/03 00:09:51;;;;;;;1.75;0.82;;;;;;;10.39;57.36;101688.13;6027787;28;20038;-66
2023/06/03 00:12:46;;;;;;;2.20;1.03;;;;;;;10.11;57.43;101697.38;6028225;28;20368;-67
2023/06/03 00:15:42;;;;;;;0.98;0.70;;;;;;;10.22;58.02;101672.75;6027193;28;20026;-67
2023/06/03 00:18:37;;;;;;;0.87;0.53;;;;;;;10.35;57.58;101684.06;6027481;28;20034;-66
2023/06/03 00:21:34;;;;;;;2.37;0.83;;;;;;;10.32;58.27;101685.16;6027677;28;20465;-66
2023/06/03 00:24:29;;;;;;;0.95;0.60;;;;;;;9.81;56.51;101689.97;6018955;28;20042;-66
2023/06/03 00:27:25;;;;;;;2.37;0.70;;;;;;;9.63;59.80;101679.94;6027433;28;20030;-66
2023/06/03 00:30:20;;;;;;;1.50;0.97;;;;;;;9.49;55.95;101668.59;6027510;28;20546;-66
2023/06/03 00:33:15;;;;;;;2.83;1.00;;;;;;;9.29;57.61;101661.31;6022355;28;20041;-66
2023/06/03 00:36:11;;;;;;;1.70;0.50;;;;;;;9.56;60.40;101679.56;6027019;28;20054;-66
2023/06/03 00:39:07;;;;;;;2.17;0.70;;;;;;;9.71;59.01;101682.84;6026894;28;20034;-66
2023/06/03 00:42:02;;;;;;;1.00;0.50;;;;;;;9.48;59.70;101671.38;6026509;28;20389;-66
2023/06/03 00:44:57;;;;;;;4.03;0.90;;;;;;;9.44;57.04;101688.41;6026406;28;20347;-66
2023/06/03 00:47:53;;;;;;;2.60;0.70;;;;;;;9.44;58.63;101691.06;6026850;28;20038;-66
2023/06/03 00:50:48;;;;;;;3.58;0.80;;;;;;;9.39;59.01;101690.56;6026939;28;20060;-66
2023/06/03 00:53:44;;;;;;;8.25;0.90;;;;;;;9.61;58.75;101697.75;6025997;28;20488;-66
2023/06/03 00:56:44;;;;;;;2.08;0.85;;;;;;;9.44;58.34;101673.38;6026611;28;20049;-66
2023/06/03 00:59:39;;;;;;;0.95;0.50;;;;;;;9.18;57.81;101685.09;6039905;28;20433;-66
2023/06/03 01:02:36;;;;;;;4.07;0.83;;;;;;;9.16;60.63;101684.31;6025606;28;20038;-66
2023/06/03 01:05:33;;;;;;;1.13;0.70;;;;;;;9.12;59.23;101680.22;6016683;28;20300;-66
2023/06/03 01:08:33;;;;;;;1.33;0.55;;;;;;;9.34;59.78;101701.50;6042447;28;20057;-66
2023/06/03 01:11:38;;;;;;;1.67;0.63;;;;;;;9.44;61.66;101699.88;6038956;28;20356;-68
2023/06/03 01:15:00;;;;;;;1.20;0.68;;;;;;;9.46;59.06;101710.31;6018491;28;20038;-66
2023/06/03 01:18:00;;;;;;;1.77;0.80;;;;;;;8.80;58.67;101700.25;6026724;28;20137;-65
2023/06/03 01:21:00;;;;;;;1.42;0.60;;;;;;;7.95;61.73;101693.03;6048642;28;20037;-66
2023/06/03 01:23:56;;;;;;;1.25;0.60;;;;;;;7.54;64.70;101721.38;6048361;28;20030;-65
2023/06/03 01:26:51;;;;;;;1.55;0.50;;;;;;;6.99;67.00;101703.03;6049780;28;20056;-66
2023/06/03 01:29:47;;;;;;;2.30;0.87;;;;;;;6.92;67.81;101707.88;6030111;28;20027;-66
2023/06/03 01:32:44;;;;;;;3.13;0.68;;;;;;;6.89;70.85;101704.56;6026199;28;20030;-65
2023/06/03 01:35:40;;;;;;;1.58;0.80;;;;;;;7.41;68.86;101713.44;6035890;28;20060;-66
2023/06/03 01:38:36;;;;;;;2.25;0.98;;;;;;;7.68;66.47;101705.47;6013983;28;20458;-66
2023/06/03 01:41:32;;;;;;;2.17;1.00;;;;;;;7.13;67.50;101690.66;6023720;28;20045;-65
2023/06/03 01:44:27;;;;;;;2.70;0.80;;;;;;;6.97;67.60;101708.41;6024197;28;20034;-66
2023/06/03 01:47:23;;;;;;;2.40;0.70;;;;;;;6.45;68.85;101702.09;6018853;28;20059;-66
2023/06/03 01:50:21;;;;;;;1.83;0.80;;;;;;;6.17;71.05;101708.22;6025827;28;20057;-65
2023/06/03 01:53:17;;;;;;;1.20;0.50;;;;;;;6.00;72.37;101705.78;6024920;28;20103;-66
2023/06/03 01:56:12;;;;;;;3.10;0.60;;;;;;;5.80;72.76;101700.81;6021699;28;20466;-65
2023/06/03 01:59:07;;;;;;;2.60;0.70;;;;;;;5.64;73.33;101698.25;6025935;28;20098;-65
2023/06/03 02:02:03;;;;;;;2.33;0.87;;;;;;;5.80;75.46;101713.97;6025741;28;20784;-65
2023/06/03 02:04:58;;;;;;;2.28;0.73;;;;;;;6.24;73.29;101703.44;6025152;28;20069;-66
2023/06/03 02:07:54;;;;;;;3.73;0.80;;;;;;;6.24;73.90;101716.59;6025739;28;20081;-66
2023/06/03 02:10:49;;;;;;;2.53;0.70;;;;;;;6.17;72.78;101688.94;6025656;28;20026;-65
2023/06/03 02:13:44;;;;;;;3.07;0.60;;;;;;;6.09;73.12;101710.47;6024398;28;20037;-67
2023/06/03 02:16:40;;;;;;;1.93;0.60;;;;;;;6.10;72.93;101717.44;6028442;28;20033;-65
2023/06/03 02:19:35;;;;;;;7.22;0.90;;;;;;;5.79;75.00;101702.59;6050904;28;20034;-66
2023/06/03 02:22:31;;;;;;;1.80;0.70;;;;;;;6.04;73.67;101711.69;6050509;28;20089;-66
2023/06/03 02:25:27;;;;;;;1.90;0.60;;;;;;;5.72;74.02;101703.91;6035314;28;20049;-65
2023/06/03 02:28:22;;;;;;;2.80;1.00;;;;;;;6.29;74.93;101696.09;6025672;28;20493;-65
2023/06/03 02:31:17;;;;;;;1.90;0.90;;;;;;;6.02;73.79;101719.69;6029918;28;20281;-65
2023/06/03 02:34:13;;;;;;;3.07;0.50;;;;;;;6.43;75.45;101715.38;6027865;28;20033;-65
2023/06/03 02:37:10;;;;;;;3.47;0.73;;;;;;;7.22;71.30;101704.19;6029510;28;20101;-66
2023/06/03 02:40:09;;;;;;;4.95;0.70;;;;;;;7.12;70.08;101722.41;6035511;28;20360;-68
2023/06/03 02:43:04;;;;;;;3.42;0.80;;;;;;;6.71;70.70;101719.78;6019754;28;20030;-66
2023/06/03 02:45:59;;;;;;;1.87;0.77;;;;;;;7.14;69.89;101724.00;6019720;28;20045;-65
2023/06/03 02:48:55;;;;;;;6.40;1.20;;;;;;;7.81;71.46;101719.53;6053403;28;20025;-65
2023/06/03 02:51:50;;;;;;;1.23;0.70;;;;;;;7.66;67.88;101696.81;6047697;28;20018;-66
2023/06/03 02:54:45;;;;;;;1.33;0.70;;;;;;;7.93;68.34;101713.44;6028638;28;20563;-67
2023/06/03 02:57:40;;;;;;;1.90;0.60;;;;;;;8.16;68.94;101725.88;6029656;28;20030;-65
2023/06/03 03:00:36;;;;;;;2.97;0.77;;;;;;;8.26;66.30;101705.78;6029259;28;20126;-65
2023/06/03 03:03:36;;;;;;;1.53;0.70;;;;;;;8.11;66.87;101722.72;6029004;28;20466;-66
2023/06/03 03:06:31;;;;;;;4.03;1.05;;;;;;;8.28;70.08;101725.09;6029237;28;20077;-66
2023/06/03 03:09:26;;;;;;;5.23;1.73;;;;;;;8.34;68.21;101719.34;6028997;28;20088;-66
2023/06/03 03:12:21;;;;;;;12.93;4.03;;;;;;;8.09;66.12;101729.06;6029127;28;20347;-66
2023/06/03 03:15:17;;;;;;;16.00;4.67;;;;;;;7.96;65.59;101713.22;6028391;28;20041;-66
2023/06/03 03:18:14;;;;;;;12.30;3.88;;;;;;;8.11;65.95;101719.22;6027847;28;20040;-65
2023/06/03 03:21:10;;;;;;;9.85;3.80;;;;;;;8.25;69.62;101709.41;6020684;28;20067;-66
2023/06/03 03:24:06;;;;;;;12.33;2.90;;;;;;;8.18;67.29;101725.81;6019034;28;20112;-65
2023/06/03 03:27:01;;;;;;;7.93;2.95;;;;;;;8.00;67.48;101703.28;6025114;28;20018;-65
2023/06/03 03:29:58;;;;;;;7.60;2.05;;;;;;;8.27;67.12;101719.91;6035501;28;20037;-66
2023/06/03 03:32:53;;;;;;;3.47;1.45;;;;;;;8.05;65.35;101709.09;6049249;28;20072;-66
2023/06/03 03:35:50;;;;;;;4.73;1.57;;;;;;;7.22;67.01;101714.72;6024048;28;20026;-66
2023/06/03 03:38:45;;;;;;;4.70;1.67;;;;;;;6.82;69.71;101724.38;6027462;28;20026;-66
2023/06/03 03:41:43;;;;;;;2.38;1.00;;;;;;;6.35;73.37;101724.69;6028486;28;20413;-66
2023/06/03 03:44:38;;;;;;;3.13;1.20;;;;;;;6.66;72.51;101716.56;6026991;28;20462;-66
2023/06/03 03:47:34;;;;;;;2.83;0.97;;;;;;;5.96;74.84;101718.25;6028553;28;20099;-65
2023/06/03 03:50:45;;;;;;;2.17;0.77;;;;;;;5.66;76.73;101742.88;6028320;28;20026;-65
2023/06/03 03:53:45;;;;;;;2.05;0.75;;;;;;;5.34;78.56;101731.56;6019167;28;20038;-65
2023/06/03 03:56:41;;;;;;;1.92;0.70;;;;;;;5.19;79.62;101727.22;6028132;28;20087;-65
2023/06/03 03:59:36;;;;;;;1.67;0.70;;;;;;;5.08;80.68;101734.84;6019665;28;20031;-67
2023/06/03 04:02:33;;;;;;;1.52;0.70;;;;;;;5.10;82.02;101733.81;6024131;28;20114;-67
2023/06/03 04:05:29;;;;;;;2.45;0.88;;;;;;;5.05;81.90;101727.13;6022904;28;20037;-67
2023/06/03 04:08:46;;;;;;;1.98;0.70;;;;;;;5.47;82.50;101743.09;6025883;28;20034;-65
2023/06/03 04:11:43;;;;;;;2.45;1.02;;;;;;;6.34;80.03;101742.28;6023487;28;20460;-65
2023/06/03 04:14:45;;;;;;;1.05;0.70;;;;;;;6.96;75.07;101730.44;6032601;28;20041;-66
2023/06/03 04:17:40;;;;;;;2.60;0.77;;;;;;;7.35;73.58;101711.19;6025547;28;20033;-65
2023/06/03 04:20:45;;;;;;;4.07;0.80;;;;;;;7.51;71.39;101737.41;6027753;28;20089;-65
2023/06/03 04:23:41;;;;;;;1.20;0.63;;;;;;;7.95;69.09;101734.44;6027156;28;20177;-65
2023/06/03 04:26:36;;;;;;;1.40;0.63;;;;;;;8.73;66.70;101731.56;6026548;28;20473;-65
2023/06/03 04:29:32;;;;;;;1.85;0.60;;;;;;;9.06;61.71;101717.72;6027585;28;20550;-65
2023/06/03 04:32:27;;;;;;;2.60;0.63;;;;;;;9.18;63.16;101730.06;6027513;28;20081;-65
2023/06/03 04:35:23;;;;;;;5.33;0.80;;;;;;;9.02;62.76;101726.00;6025160;28;20274;-65
2023/06/03 04:38:19;;;;;;;1.48;0.52;;;;;;;10.00;61.14;101721.22;6027313;28;20042;-66
2023/06/03 04:41:15;;;;;;;1.65;0.70;;;;;;;9.76;60.81;101728.38;6025700;28;20037;-66
2023/06/03 04:44:11;;;;;;;1.30;0.80;;;;;;;9.97;59.39;101729.41;6018480;28;20038;-64
2023/06/03 04:47:10;;;;;;;2.38;0.75;;;;;;;10.20;58.24;101722.34;6026918;28;20030;-65
2023/06/03 04:50:06;;;;;;;1.80;0.70;;;;;;;10.33;58.79;101710.69;6027115;28;20026;-66
2023/06/03 04:53:02;;;;;;;2.17;0.90;;;;;;;11.10;56.56;101728.34;6030414;28;20049;-64
2023/06/03 04:55:57;;;;;;;1.63;0.70;;;;;;;12.15;53.66;101716.91;6030492;28;20038;-67
2023/06/03 04:58:54;;;;;;;1.80;1.07;;;;;;;12.52;52.69;101723.38;6024570;28;20764;-66
2023/06/03 05:01:51;;;;;;;1.55;0.80;;;;;;;11.46;53.68;101721.81;6021945;28;20036;-66
2023/06/03 05:04:49;;;;;;;2.33;0.95;;;;;;;11.85;53.38;101734.47;6018986;28;20105;-66
2023/06/03 05:07:44;;;;;;;1.63;0.80;;;;;;;12.10;53.08;101717.28;6026167;28;20129;-66
2023/06/03 05:10:40;;;;;;;3.60;0.90;;;;;;;12.04;53.88;101719.63;6050486;28;20133;-66
2023/06/03 05:13:36;;;;;;;2.78;1.00;;;;;;;11.75;53.86;101727.38;6033726;28;20034;-66
2023/06/03 05:16:31;;;;;;;2.35;0.90;;;;;;;12.26;53.11;101732.75;6026331;28;20044;-65
2023/06/03 05:19:27;;;;;;;2.38;1.15;;;;;;;12.38;52.97;101724.56;6026672;28;20042;-66
2023/06/03 05:22:22;;;;;;;2.00;0.80;;;;;;;12.68;52.43;101734.38;6026303;28;20092;-66
2023/06/03 05:25:17;;;;;;;2.60;0.95;;;;;;;12.90;49.95;101712.88;6037861;28;20253;-65
2023/06/03 05:28:13;;;;;;;2.27;1.03;;;;;;;13.01;50.15;101704.75;6033782;28;20121;-66
2023/06/03 05:31:08;;;;;;;1.93;0.90;;;;;;;13.07;49.91;101717.53;6026108;28;20308;-65
2023/06/03 05:34:04;;;;;;;2.72;1.55;;;;;;;12.09;52.66;101718.28;6024674;28;20053;-66
2023/06/03 05:36:59;;;;;;;2.40;1.37;;;;;;;12.03;52.71;101723.25;6023965;28;20160;-65
2023/06/03 05:39:54;;;;;;;3.92;0.88;;;;;;;12.85;50.58;101733.72;6045478;28;20755;-65
2023/06/03 05:42:50;;;;;;;1.60;0.80;;;;;;;12.46;53.00;101739.88;6029810;28;20476;-65
2023/06/03 05:45:46;;;;;;;2.70;0.93;;;;;;;13.50;49.81;101732.31;6025356;28;20030;-66
2023/06/03 05:48:41;;;;;;;3.65;0.90;;;;;;;13.23;50.25;101726.84;6026154;28;20033;-65
2023/06/03 05:51:36;;;;;;;3.53;1.00;;;;;;;14.32;47.57;101719.31;6025882;28;20030;-65
2023/06/03 05:54:32;;;;;;;1.55;0.88;;;;;;;13.67;49.72;101739.59;6025710;28;20308;-66
2023/06/03 05:57:27;;;;;;;3.67;1.23;;;;;;;13.37;50.17;101721.09;6043866;28;20469;-66
2023/06/03 06:00:22;;;;;;;4.60;1.00;;;;;;;13.89;47.68;101731.31;6021922;28;20038;-69
2023/06/03 06:03:18;;;;;;;2.20;0.82;;;;;;;14.24;48.28;101728.84;6022424;28;20030;-66
2023/06/03 06:06:13;;;;;;;2.60;1.00;;;;;;;14.20;47.92;101716.78;6022248;28;20144;-66
2023/06/03 06:09:08;;;;;;;1.83;1.00;;;;;;;14.19;48.97;101732.94;6028273;28;20277;-65
2023/06/03 06:12:04;;;;;;;4.03;1.00;;;;;;;13.58;48.22;101716.47;6029302;28;20032;-65
2023/06/03 06:15:00;;;;;;;1.33;0.70;;;;;;;14.39;47.88;101729.25;6017369;28;20027;-66
2023/06/03 06:17:55;;;;;;;3.10;1.07;;;;;;;14.00;48.54;101715.16;6028939;28;20026;-66
2023/06/03 06:20:50;;;;;;;3.23;1.13;;;;;;;14.53;46.61;101727.94;6019600;28;20122;-66
2023/06/03 06:23:46;;;;;;;2.97;1.03;;;;;;;14.45;48.14;101718.00;6027328;28;20034;-66
2023/06/03 06:26:41;;;;;;;6.30;1.47;;;;;;;14.76;47.06;101723.91;6029425;28;20301;-66
2023/06/03 06:29:36;;;;;;;2.70;0.95;;;;;;;14.22;47.62;101722.81;6027994;28;20380;-66
2023/06/03 06:32:57;;;;;;;2.43;1.40;;;;;;;14.42;48.23;101720.13;6022753;28;20050;-65
2023/06/03 06:35:52;;;;;;;3.67;1.50;;;;;;;14.36;47.98;101708.19;6009141;28;20073;-66
2023/06/03 06:38:48;;;;;;;2.23;0.90;;;;;;;14.60;47.41;101727.22;6023060;28;20042;-66
2023/06/03 06:41:43;;;;;;;2.47;1.20;;;;;;;14.15;47.78;101708.38;6029086;28;20038;-66
2023/06/03 06:44:45;;;;;;;3.03;1.20;;;;;;;14.36;47.13;101731.38;6028842;28;20353;-66
2023/06/03 06:47:41;;;;;;;2.20;1.10;;;;;;;14.76;46.81;101723.91;6022638;28;20397;-66
2023/06/03 06:50:53;;;;;;;3.80;1.20;;;;;;;14.42;47.65;101725.47;6030009;28;20027;-66
2023/06/03 06:53:48;;;;;;;1.85;0.85;;;;;;;14.52;47.97;101715.56;6028127;28;20030;-66
2023/06/03 06:56:43;;;;;;;3.40;1.20;;;;;;;15.12;45.46;101731.00;6019038;28;20026;-66
2023/06/03 06:59:38;;;;;;;2.17;0.90;;;;;;;15.31;45.17;101724.69;6029639;28;20265;-66
2023/06/03 07:02:34;;;;;;;3.83;1.20;;;;;;;14.38;44.82;101716.09;6021347;28;20042;-65
2023/06/03 07:05:29;;;;;;;2.70;0.90;;;;;;;15.44;45.40;101725.16;6014744;28;20381;-65
2023/06/03 07:08:25;;;;;;;3.00;0.70;;;;;;;15.53;44.17;101718.06;6024858;28;20030;-66
2023/06/03 07:11:22;;;;;;;4.40;1.10;;;;;;;15.56;43.57;101707.09;6015145;28;20474;-66
2023/06/03 07:14:18;;;;;;;2.00;0.70;;;;;;;15.85;43.12;101707.66;6026016;28;20044;-66
2023/06/03 07:17:14;;;;;;;2.35;0.60;;;;;;;15.47;42.23;101709.69;6037001;28;20406;-67
2023/06/03 07:20:18;;;;;;;2.92;0.70;;;;;;;15.40;43.33;101731.81;6023189;28;20061;-65
2023/06/03 07:23:19;;;;;;;1.13;0.60;;;;;;;15.72;43.05;101712.56;6031011;28;20060;-65
2023/06/03 07:26:15;;;;;;;1.92;0.70;;;;;;;16.41;40.64;101715.22;6031627;28;20030;-66
2023/06/03 07:29:10;;;;;;;2.20;0.90;;;;;;;15.95;41.71;101703.06;6024943;28;20437;-66
2023/06/03 07:32:07;;;;;;;1.47;0.73;;;;;;;16.34;39.70;101712.31;6021522;28;20262;-66
2023/06/03 07:35:03;;;;;;;2.42;0.80;;;;;;;16.27;39.14;101716.66;6030401;28;20462;-66
2023/06/03 07:37:58;;;;;;;0.95;0.55;;;;;;;16.48;39.51;101701.03;6023045;28;20073;-66
2023/06/03 07:40:53;;;;;;;1.40;0.50;;;;;;;16.29;38.87;101711.97;6012292;28;20466;-66
2023/06/03 07:43:49;;;;;;;1.23;0.70;;;;;;;16.04;40.12;101723.50;6021394;28;20420;-66
2023/06/03 07:46:46;;;;;;;1.40;0.70;;;;;;;15.91;38.44;101728.44;6025368;28;20489;-66
2023/06/03 07:49:45;;;;;;;1.30;0.52;;;;;;;15.92;38.40;101733.66;6009716;28;20081;-67
2023/06/03 07:52:40;;;;;;;1.17;0.60;;;;;;;16.58;35.82;101728.56;6014787;28;20035;-66
2023/06/03 07:55:45;;;;;;;1.47;0.60;;;;;;;16.62;34.39;101719.22;6007243;28;20034;-66
2023/06/03 07:58:40;;;;;;;0.70;0.50;;;;;;;16.63;35.12;101718.19;6016847;28;20026;-66
2023/06/03 08:01:36;;;;;;;1.53;0.60;;;;;;;16.40;36.00;101729.59;6012434;28;20042;-66
2023/06/03 08:04:34;;;;;;;1.83;0.70;;;;;;;16.18;36.99;101722.94;6012723;28;20030;-66
2023/06/03 08:07:30;;;;;;;1.30;0.60;;;;;;;16.41;36.43;101731.28;6018662;28;20041;-67
2023/06/03 08:10:25;;;;;;;1.17;0.50;;;;;;;16.46;36.57;101713.75;6024326;28;20026;-66
2023/06/03 08:13:21;;;;;;;0.77;0.43;;;;;;;17.00;36.44;101733.09;6016172;28;20034;-66
2023/06/03 08:16:18;;;;;;;1.13;0.60;;;;;;;16.53;35.76;101741.59;6021635;28;20122;-66
2023/06/03 08:19:14;;;;;;;3.05;0.77;;;;;;;16.30;36.13;101739.59;6026225;28;20043;-67
2023/06/03 08:22:28;;;;;;;2.13;0.80;;;;;;;16.55;35.17;101726.19;6020890;28;20059;-66
2023/06/03 08:25:23;;;;;;;1.13;0.50;;;;;;;16.42;34.61;101724.91;6016235;28;20129;-66
2023/06/03 08:28:19;;;;;;;1.13;0.50;;;;;;;16.77;33.75;101719.44;6026847;28;20370;-67
2023/06/03 08:31:14;;;;;;;1.70;0.80;;;;;;;16.82;33.80;101719.81;6026084;28;20285;-66
2023/06/03 08:34:09;;;;;;;2.75;0.63;;;;;;;16.69;33.61;101718.56;6013624;28;20034;-66
2023/06/03 08:37:06;;;;;;;2.27;0.70;;;;;;;16.73;33.55;101730.63;6027724;28;20038;-67
2023/06/03 08:40:05;;;;;;;1.73;0.55;;;;;;;17.07;32.47;101723.38;6028434;28;20114;-67
2023/06/03 08:43:02;;;;;;;1.73;0.38;;;;;;;16.72;32.25;101718.22;6021389;28;20108;-66
2023/06/03 08:46:09;;;;;;;1.15;0.40;;;;;;;16.85;31.96;101727.50;6024261;28;20030;-67
2023/06/03 08:49:07;;;;;;;0.93;0.50;;;;;;;16.94;32.30;101721.16;6023744;28;20113;-66
2023/06/03 08:52:03;;;;;;;1.70;0.60;;;;;;;17.02;30.61;101713.16;6018160;28;20030;-67
2023/06/03 08:55:00;;;;;;;1.02;0.50;;;;;;;17.24;31.50;101725.09;6016049;28;20694;-66
2023/06/03 08:58:25;;;;;;;2.45;0.38;;;;;;;17.29;30.41;101725.44;6024312;28;20026;-68
2023/06/03 09:01:28;;;;;;;2.58;0.65;;;;;;;16.80;30.24;101704.88;6034272;28;20057;-66
2023/06/03 09:04:23;;;;;;;1.25;0.50;;;;;;;17.29;30.86;101720.09;6015980;28;20041;-65
2023/06/03 09:07:20;;;;;;;2.83;0.80;;;;;;;17.62;29.45;101713.78;6029976;28;20034;-66
2023/06/03 09:10:16;;;;;;;1.65;0.47;;;;;;;17.65;29.46;101710.78;6028334;28;20037;-66
2023/06/03 09:13:13;;;;;;;1.25;0.45;;;;;;;17.37;29.48;101714.72;6022771;28;20030;-67
2023/06/03 09:16:09;;;;;;;1.13;0.50;;;;;;;17.62;29.57;101711.09;6012130;28;20078;-66
2023/06/03 09:19:06;;;;;;;1.58;0.60;;;;;;;18.09;29.82;101715.78;6014747;28;20362;-67
2023/06/03 09:22:02;;;;;;;0.65;0.35;;;;;;;18.32;27.72;101693.41;6025545;28;20034;-67
2023/06/03 09:24:57;;;;;;;2.13;0.60;;;;;;;18.26;26.99;101695.94;6026315;28;20108;-67
2023/06/03 09:27:53;;;;;;;0.70;0.47;;;;;;;18.14;26.81;101697.31;6018808;28;20034;-67
2023/06/03 09:30:49;;;;;;;1.20;0.40;;;;;;;18.44;28.73;101693.88;6021333;28;20113;-67
2023/06/03 09:33:45;;;;;;;1.10;0.60;;;;;;;18.63;28.14;101698.03;6013179;28;20050;-67
2023/06/03 09:36:45;;;;;;;1.38;0.50;;;;;;;18.10;28.98;101686.06;6019699;28;20042;-67
2023/06/03 09:39:40;;;;;;;1.42;0.73;;;;;;;18.31;29.08;101702.47;6010015;28;20062;-68
2023/06/03 09:42:43;;;;;;;1.38;0.60;;;;;;;18.35;31.24;101702.94;6022589;28;20100;-68
2023/06/03 09:45:39;;;;;;;2.45;0.73;;;;;;;19.02;31.03;101693.47;6043666;28;20034;-67
2023/06/03 09:48:35;;;;;;;0.70;0.57;;;;;;;19.21;28.77;101676.03;6017668;28;20057;-68
2023/06/03 09:51:41;;;;;;;2.40;0.55;;;;;;;19.32;27.92;101699.84;6015523;28;20110;-68
2023/06/03 09:54:36;;;;;;;4.25;0.65;;;;;;;19.00;28.09;101682.03;6022213;28;20030;-67
2023/06/03 09:57:32;;;;;;;0.63;0.32;;;;;;;19.35;29.14;101689.53;6015413;28;20049;-68
2023/06/03 10:00:30;;;;;;;0.65;0.50;;;;;;;18.88;28.28;101695.06;6025625;28;20074;-67
2023/06/03 10:03:25;;;;;;;1.80;0.60;;;;;;;18.86;28.24;101685.50;6011196;28;20031;-68
2023/06/03 10:06:21;;;;;;;2.07;0.57;;;;;;;18.85;27.81;101698.09;6014166;28;20045;-68
2023/06/03 10:09:25;;;;;;;1.25;0.55;;;;;;;19.21;27.96;101676.03;6022771;28;20030;-67
2023/06/03 10:12:31;;;;;;;1.20;0.60;;;;;;;19.57;28.94;101677.13;6021623;28;20134;-68
2023/06/03 10:15:35;;;;;;;1.52;0.50;;;;;;;19.39;28.35;101677.44;6021124;28;20464;-68
2023/06/03 10:18:40;;;;;;;3.60;0.63;;;;;;;19.24;28.01;101665.75;6025541;28;20026;-68
2023/06/03 10:21:36;;;;;;;1.10;0.50;;;;;;;19.82;28.52;101664.28;6024127;28;20030;-68
2023/06/03 10:24:34;;;;;;;0.52;0.43;;;;;;;19.46;28.68;101669.47;6019936;28;20046;-68
2023/06/03 10:27:30;;;;;;;0.65;0.43;;;;;;;19.40;27.88;101667.53;6016992;28;20031;-66
2023/06/03 10:30:26;;;;;;;1.63;0.68;;;;;;;19.23;28.79;101655.19;6013098;28;20474;-66
2023/06/03 10:33:22;;;;;;;2.88;0.73;;;;;;;19.79;29.17;101670.03;6017711;28;20474;-67
2023/06/03 10:36:20;;;;;;;0.60;0.47;;;;;;;18.95;29.49;101654.84;6023911;28;20026;-66
2023/06/03 10:39:16;;;;;;;3.92;0.70;;;;;;;19.40;30.19;101652.22;6012752;28;20482;-67
2023/06/03 10:42:12;;;;;;;0.77;0.50;;;;;;;19.42;29.37;101652.88;6031958;28;20058;-68
2023/06/03 10:45:08;;;;;;;1.60;0.77;;;;;;;19.28;30.22;101660.84;6020529;28;20075;-66
2023/06/03 10:48:07;;;;;;;0.47;0.35;;;;;;;19.53;28.64;101662.38;6044978;28;20060;-67
2023/06/03 10:51:20;;;;;;;1.05;0.60;;;;;;;19.67;28.81;101656.19;6021008;28;20068;-69
2023/06/03 10:54:33;;;;;;;0.52;0.32;;;;;;;19.50;28.32;101655.50;6031384;28;20029;-68
2023/06/03 10:57:39;;;;;;;2.28;0.88;;;;;;;19.91;28.46;101642.50;6017892;28;20477;-68
2023/06/03 11:01:03;;;;;;;1.00;0.40;;;;;;;20.34;28.04;101651.66;6026319;28;20084;-68
2023/06/03 11:04:02;;;;;;;1.38;0.75;;;;;;;20.79;27.97;101645.16;6030762;28;20033;-68
2023/06/03 11:06:58;;;;;;;0.85;0.50;;;;;;;20.74;27.19;101634.09;6025040;28;20089;-68
2023/06/03 11:09:56;;;;;;;1.88;0.52;;;;;;;21.08;26.76;101626.22;6018113;28;20062;-68
2023/06/03 11:12:51;;;;;;;0.45;0.40;;;;;;;20.73;27.49;101635.16;6019990;28;20482;-68
2023/06/03 11:16:02;;;;;;;1.67;0.50;;;;;;;20.46;26.22;101630.44;6024498;28;20037;-68
2023/06/03 11:19:46;;;;;;;1.38;0.60;;;;;;;20.02;27.30;101617.81;6024580;28;20037;-69
2023/06/03 11:22:42;;;;;;;1.60;0.52;;;;;;;19.63;27.17;101617.19;6022767;28;20398;-69
2023/06/03 11:25:38;;;;;;;1.48;0.40;;;;;;;20.13;27.07;101621.91;6026506;28;20397;-69
2023/06/03 11:28:36;;;;;;;2.47;0.73;;;;;;;19.77;26.84;101605.63;6025263;28;20045;-68
2023/06/03 11:31:33;;;;;;;1.20;0.55;;;;;;;19.99;27.46;101623.56;6024327;28;20039;-68
2023/06/03 11:34:28;;;;;;;0.50;0.50;;;;;;;20.18;28.07;101620.31;6037128;28;20023;-67
2023/06/03 11:37:43;;;;;;;0.80;0.50;;;;;;;20.69;26.65;101623.06;6024813;28;20429;-67
2023/06/03 11:40:45;;;;;;;2.13;0.80;;;;;;;20.21;25.63;101627.19;6023824;28;20030;-68
2023/06/03 11:44:18;;;;;;;2.13;0.80;;;;;;;20.60;25.38;101624.22;6015803;28;20047;-67
2023/06/03 11:47:14;;;;;;;3.67;0.60;;;;;;;20.14;25.82;101610.91;6019409;28;20604;-67
2023/06/03 11:50:09;;;;;;;1.20;0.60;;;;;;;20.14;24.12;101626.25;6028309;28;20030;-67
2023/06/03 11:53:04;;;;;;;1.43;0.60;;;;;;;20.51;25.72;101617.25;6010258;28;20089;-67
2023/06/03 11:56:04;;;;;;;1.85;0.60;;;;;;;20.81;25.35;101613.47;6039152;28;20115;-68
2023/06/03 11:59:00;;;;;;;1.30;0.60;;;;;;;20.27;25.31;101625.63;6027469;28;20386;-67
2023/06/03 12:02:02;;;;;;;2.38;0.63;;;;;;;20.33;24.16;101628.41;6016928;28;20046;-68
2023/06/03 12:05:03;;;;;;;1.65;0.70;;;;;;;19.96;23.60;101618.53;6027364;28;20030;-67
2023/06/03 12:08:00;;;;;;;2.33;0.50;;;;;;;19.94;24.55;101619.75;6036039;28;20113;-68
2023/06/03 12:10:55;;;;;;;1.02;0.70;;;;;;;19.46;24.99;101602.22;6047760;28;20030;-67
2023/06/03 12:13:50;;;;;;;1.20;0.70;;;;;;;19.21;25.21;101606.97;6026635;28;20482;-68
2023/06/03 12:16:46;;;;;;;2.20;0.60;;;;;;;19.48;25.31;101608.28;6025070;28;20492;-67
2023/06/03 12:19:43;;;;;;;2.20;0.57;;;;;;;20.05;25.27;101617.44;6027984;28;20104;-68
2023/06/03 12:22:38;;;;;;;1.77;0.68;;;;;;;20.31;24.57;101608.06;6026342;28;20038;-67
2023/06/03 12:25:35;;;;;;;1.60;0.70;;;;;;;20.41;24.28;101595.16;6025905;28;20077;-67
2023/06/03 12:28:31;;;;;;;0.63;0.40;;;;;;;21.13;23.44;101604.91;6024465;28;20026;-68
2023/06/03 12:31:27;;;;;;;3.00;0.65;;;;;;;21.60;23.61;101592.63;6023999;28;20109;-67
2023/06/03 12:34:30;;;;;;;1.77;0.63;;;;;;;22.30;23.14;101579.78;6015410;28;20034;-67
2023/06/03 12:37:29;;;;;;;1.65;0.73;;;;;;;22.04;22.94;101576.94;6020597;28;20055;-68
2023/06/03 12:40:25;;;;;;;;;;;;;;;21.81;22.78;101581.78;6007605;28;20406;-67
2023/06/03 12:43:21;;;;;;;1.40;0.60;;;;;;;22.07;22.05;101581.13;6021493;28;19916;-68
2023/06/03 12:46:17;;;;;;;2.88;0.70;;;;;;;21.87;21.44;101587.25;6009641;28;20027;-68
2023/06/03 12:49:14;;;;;;;1.23;0.70;;;;;;;21.87;21.73;101568.34;6019795;28;20026;-67
2023/06/03 12:52:17;;;;;;;1.63;0.90;;;;;;;22.64;22.12;101578.06;6020550;28;20149;-68
2023/06/03 12:55:15;;;;;;;1.20;0.60;;;;;;;22.25;21.48;101576.84;6025448;28;20030;-68
2023/06/03 12:58:10;;;;;;;3.00;0.70;;;;;;;22.19;21.46;101585.75;6026373;28;20433;-68
2023/06/03 13:01:05;;;;;;;2.67;0.70;;;;;;;20.96;21.54;101589.97;6025841;28;20043;-68
2023/06/03 13:04:01;;;;;;;1.10;0.60;;;;;;;21.55;22.41;101581.59;6024967;28;20038;-68
2023/06/03 13:06:56;;;;;;;1.10;0.57;;;;;;;21.18;22.71;101572.78;6028273;28;20092;-68
2023/06/03 13:09:56;;;;;;;1.63;0.80;;;;;;;21.70;22.02;101549.91;6032284;28;20065;-68
2023/06/03 13:12:51;;;;;;;1.90;0.90;;;;;;;21.36;22.13;101565.03;6019303;28;20416;-68
2023/06/03 13:15:46;;;;;;;1.80;1.00;;;;;;;21.29;22.67;101566.84;6029356;28;20044;-67
2023/06/03 13:18:41;;;;;;;1.53;0.80;;;;;;;21.23;22.64;101556.00;6018263;28;20037;-68
2023/06/03 13:21:37;;;;;;;2.07;0.90;;;;;;;21.25;22.28;101562.88;6049652;28;20084;-68
2023/06/03 13:24:32;;;;;;;1.10;0.70;;;;;;;21.38;23.03;101526.22;6015868;28;20529;-67
2023/06/03 13:27:27;;;;;;;1.60;0.80;;;;;;;21.79;22.92;101557.66;6025764;28;20042;-68
2023/06/03 13:30:23;;;;;;;1.98;0.82;;;;;;;21.74;21.86;101556.59;6026136;28;20026;-68
2023/06/03 13:33:18;;;;;;;0.87;0.57;;;;;;;21.26;21.93;101551.06;6017567;28;20041;-67
2023/06/03 13:36:14;;;;;;;1.75;0.70;;;;;;;21.77;22.24;101534.56;6025803;28;20106;-68
2023/06/03 13:39:09;;;;;;;1.48;0.75;;;;;;;22.06;21.30;101537.06;6019386;28;20030;-67
2023/06/03 13:42:05;;;;;;;2.30;0.80;;;;;;;21.42;21.63;101538.28;6021542;28;20034;-67
2023/06/03 13:45:06;;;;;;;1.13;0.68;;;;;;;21.39;21.93;101552.19;6024472;28;20292;-69
2023/06/03 13:48:01;;;;;;;1.70;0.70;;;;;;;21.77;21.95;101540.81;6025414;28;20030;-70